createdAt,value
2018-09-28T00:00:52.749Z,7.30
2018-09-28T00:05:58.656Z,11.20
2018-09-28T00:11:02.257Z,12.23
2018-09-28T00:16:05.861Z,10.27
2018-09-28T00:21:09.482Z,11.33
2018-09-28T00:26:13.092Z,9.40
2018-09-28T00:31:16.662Z,11.10
2018-09-28T00:36:24.418Z,9.17
2018-09-28T00:41:28.095Z,11.33
2018-09-28T00:46:31.831Z,11.70
2018-09-28T00:51:35.373Z,12.63
2018-09-28T00:56:39.019Z,12.10
2018-09-28T01:01:42.641Z,11.80
2018-09-28T01:06:46.180Z,10.37
2018-09-28T01:11:49.971Z,12.20
2018-09-28T01:16:53.545Z,13.97
2018-09-28T01:21:57.154Z,17.33
2018-09-28T01:27:00.731Z,15.13
2018-09-28T01:32:04.388Z,19.10
2018-09-28T01:37:08.275Z,16.80
2018-09-28T01:42:11.933Z,15.33
2018-09-28T01:47:15.625Z,16.00
2018-09-28T01:52:19.344Z,14.07
2018-09-28T01:57:22.938Z,16.03
2018-09-28T02:02:26.752Z,15.40
2018-09-28T02:07:30.502Z,14.47
2018-09-28T02:12:34.158Z,17.83
2018-09-28T02:17:37.762Z,27.00
2018-09-28T02:22:41.365Z,22.47
2018-09-28T02:27:44.938Z,19.40
2018-09-28T02:32:48.470Z,28.60
2018-09-28T02:37:52.088Z,27.47
2018-09-28T02:42:57.868Z,53.93
2018-09-28T02:48:01.484Z,24.13
2018-09-28T02:53:05.109Z,15.03
2018-09-28T02:58:08.668Z,31.00
2018-09-28T03:03:12.321Z,32.83
2018-09-28T03:08:15.966Z,34.00
2018-09-28T03:13:19.674Z,31.93
2018-09-28T03:18:23.262Z,19.83
2018-09-28T03:23:26.839Z,17.90
2018-09-28T03:28:30.431Z,19.47
2018-09-28T03:33:34.262Z,15.87
2018-09-28T03:38:37.889Z,26.53
2018-09-28T03:43:41.602Z,17.90
2018-09-28T03:48:45.225Z,20.60
2018-09-28T03:53:52.536Z,17.93
2018-09-28T03:58:56.640Z,18.30
2018-09-28T04:04:00.242Z,17.93
2018-09-28T04:09:04.892Z,17.07
2018-09-28T04:14:08.777Z,22.07
2018-09-28T04:19:12.453Z,17.33
2018-09-28T04:24:16.133Z,17.97
2018-09-28T04:29:19.758Z,19.00
2018-09-28T04:34:23.310Z,16.30
2018-09-28T04:39:26.857Z,18.70
2018-09-28T04:44:30.506Z,22.20
2018-09-28T04:49:34.120Z,19.50
2018-09-28T04:54:37.618Z,21.13
2018-09-28T04:59:41.235Z,19.33
2018-09-28T05:04:44.854Z,18.10
2018-09-28T05:09:48.487Z,22.37
2018-09-28T05:14:52.100Z,21.27
2018-09-28T05:19:55.650Z,17.17
2018-09-28T05:25:00.501Z,18.57
2018-09-28T05:30:04.388Z,18.70
2018-09-28T05:35:08.055Z,18.40
2018-09-28T05:40:11.685Z,20.80
2018-09-28T05:45:15.246Z,22.13
2018-09-28T05:50:19.286Z,20.83
2018-09-28T05:55:22.894Z,21.23
2018-09-28T06:00:37.609Z,20.00
2018-09-28T06:05:42.817Z,21.43
2018-09-28T06:10:46.567Z,25.07
2018-09-28T06:15:50.179Z,24.43
2018-09-28T06:20:53.872Z,22.80
2018-09-28T06:25:57.532Z,23.50
2018-09-28T06:31:01.166Z,26.80
2018-09-28T06:36:04.758Z,33.73
2018-09-28T06:41:08.261Z,29.60
2018-09-28T06:46:11.857Z,27.10
2018-09-28T06:51:15.509Z,29.70
2018-09-28T06:56:19.204Z,28.63
2018-09-28T07:01:23.203Z,31.13
2018-09-28T07:06:27.553Z,24.60
2018-09-28T07:11:32.208Z,25.33
2018-09-28T07:16:37.316Z,22.90
2018-09-28T07:21:41.073Z,23.90
2018-09-28T07:26:46.072Z,18.67
2018-09-28T07:31:51.608Z,17.50
2018-09-28T07:36:56.076Z,20.30
2018-09-28T07:41:59.656Z,14.53
2018-09-28T07:47:03.177Z,20.80
2018-09-28T07:52:06.769Z,15.37
2018-09-28T07:57:10.460Z,17.73
2018-09-28T08:02:14.214Z,14.30
2018-09-28T08:07:18.896Z,16.83
2018-09-28T08:12:24.141Z,10.27
2018-09-28T08:17:28.026Z,16.57
2018-09-28T08:22:31.724Z,12.97
2018-09-28T08:27:35.628Z,17.27
2018-09-28T08:32:45.033Z,11.87
2018-09-28T08:37:52.542Z,10.53
2018-09-28T08:42:59.767Z,17.83
2018-09-28T08:48:04.155Z,16.07
2018-09-28T08:53:08.185Z,14.23
2018-09-28T08:58:11.792Z,23.57
2018-09-28T09:03:15.454Z,11.37
2018-09-28T09:08:19.071Z,16.30
2018-09-28T09:13:22.742Z,9.37
2018-09-28T09:18:26.466Z,10.03
2018-09-28T09:23:30.072Z,11.33
2018-09-28T09:28:33.659Z,9.17
2018-09-28T09:33:37.328Z,9.33
2018-09-28T09:38:40.961Z,10.80
2018-09-28T09:43:48.478Z,6.53
2018-09-28T09:48:52.063Z,10.63
2018-09-28T09:53:55.680Z,11.70
2018-09-28T09:58:59.238Z,8.40
2018-09-28T10:04:10.023Z,11.63
2018-09-28T10:09:14.675Z,8.67
2018-09-28T10:14:18.249Z,8.47
2018-09-28T10:19:22.155Z,16.33
2018-09-28T10:24:25.778Z,15.73
2018-09-28T10:29:29.508Z,12.57
2018-09-28T10:34:33.102Z,8.80
2018-09-28T10:39:36.963Z,11.70
2018-09-28T10:44:40.578Z,12.23
2018-09-28T10:49:56.064Z,11.27
2018-09-28T10:54:59.665Z,7.07
2018-09-28T11:00:03.450Z,16.93
2018-09-28T11:05:07.260Z,12.30
2018-09-28T11:10:10.876Z,10.23
2018-09-28T11:15:14.563Z,12.27
2018-09-28T11:20:18.412Z,13.83
2018-09-28T11:25:22.159Z,7.53
2018-09-28T11:30:28.926Z,10.53
2018-09-28T11:35:32.688Z,7.47
2018-09-28T11:40:36.468Z,3.83
2018-09-28T11:45:40.115Z,7.33
2018-09-28T11:50:43.771Z,7.17
2018-09-28T11:55:47.461Z,10.03
2018-09-28T12:00:51.324Z,11.83
2018-09-28T12:05:55.040Z,7.27
2018-09-28T12:10:58.805Z,6.23
2018-09-28T12:16:02.360Z,13.47
2018-09-28T12:21:05.956Z,10.10
2018-09-28T12:26:09.592Z,11.63
2018-09-28T12:31:13.229Z,11.67
2018-09-28T12:36:16.868Z,12.17
2018-09-28T12:41:20.513Z,9.70
2018-09-28T12:46:24.212Z,8.43
2018-09-28T12:51:27.809Z,14.80
2018-09-28T12:56:31.390Z,6.47
2018-09-28T13:01:35.391Z,6.90
2018-09-28T13:06:39.071Z,5.60
2018-09-28T13:11:42.656Z,6.93
2018-09-28T13:16:46.415Z,11.67
2018-09-28T13:21:50.072Z,7.00
2018-09-28T13:26:57.637Z,9.30
2018-09-28T13:32:01.305Z,6.20
2018-09-28T13:37:04.877Z,3.10
2018-09-28T13:42:08.559Z,3.00
2018-09-28T13:47:12.170Z,2.63
2018-09-28T13:52:15.883Z,4.53
2018-09-28T13:57:19.674Z,3.10
2018-09-28T14:02:26.450Z,4.27
2018-09-28T14:07:29.929Z,3.20
2018-09-28T14:12:33.690Z,2.83
2018-09-28T14:17:38.239Z,5.33
2018-09-28T14:22:41.892Z,5.87
2018-09-28T14:27:45.552Z,3.60
2018-09-28T14:32:51.756Z,8.33
2018-09-28T14:37:55.454Z,4.17
2018-09-28T14:42:58.999Z,1.87
2018-09-28T14:48:02.591Z,2.67
2018-09-28T14:53:06.193Z,4.27
2018-09-28T14:58:09.860Z,8.37
2018-09-28T15:03:13.463Z,5.63
2018-09-28T15:08:17.117Z,4.57
2018-09-28T15:13:20.697Z,4.47
2018-09-28T15:18:24.333Z,4.13
2018-09-28T15:23:27.920Z,5.13
2018-09-28T15:28:31.509Z,5.03
2018-09-28T15:33:35.158Z,6.70
2018-09-28T15:38:38.723Z,4.43
2018-09-28T15:43:42.275Z,6.17
2018-09-28T15:48:45.842Z,2.00
2018-09-28T15:53:49.476Z,7.80
2018-09-28T15:58:53.136Z,7.27
2018-09-28T16:03:56.736Z,4.33
2018-09-28T16:09:00.282Z,7.27
2018-09-28T16:14:03.927Z,4.33
2018-09-28T16:19:07.539Z,4.93
2018-09-28T16:24:11.136Z,4.03
2018-09-28T16:29:14.745Z,5.07
2018-09-28T16:34:18.355Z,7.13
2018-09-28T16:39:21.975Z,6.03
2018-09-28T16:44:25.573Z,7.87
2018-09-28T16:49:29.276Z,5.80
2018-09-28T16:54:32.860Z,2.60
2018-09-28T16:59:36.547Z,8.03
2018-09-28T17:04:40.153Z,5.07
2018-09-28T17:09:46.295Z,7.00
2018-09-28T17:14:49.907Z,6.67
2018-09-28T17:19:53.561Z,9.83
2018-09-28T17:24:57.213Z,2.90
2018-09-28T17:30:00.829Z,6.40
2018-09-28T17:35:04.434Z,5.83
2018-09-28T17:40:08.074Z,5.57
2018-09-28T17:45:11.771Z,4.97
2018-09-28T17:50:15.475Z,4.37
2018-09-28T17:55:19.055Z,7.43
2018-09-28T18:00:34.114Z,4.43
2018-09-28T18:05:37.759Z,4.87
2018-09-28T18:10:41.262Z,3.20
2018-09-28T18:15:44.910Z,7.13
2018-09-28T18:20:48.484Z,8.43
2018-09-28T18:25:52.068Z,5.97
2018-09-28T18:30:55.978Z,8.37
2018-09-28T18:35:59.673Z,4.97
2018-09-28T18:41:03.215Z,8.27
2018-09-28T18:46:06.987Z,7.13
2018-09-28T18:51:10.574Z,5.60
2018-09-28T18:56:14.180Z,7.13
2018-09-28T19:01:18.042Z,11.57
2018-09-28T19:06:21.905Z,11.07
2018-09-28T19:11:25.538Z,4.13
2018-09-28T19:16:29.343Z,6.60
2018-09-28T19:21:33.010Z,5.63
2018-09-28T19:26:36.729Z,7.87
2018-09-28T19:31:41.195Z,10.47
2018-09-28T19:36:44.859Z,6.07
2018-09-28T19:41:48.674Z,6.33
2018-09-28T19:46:52.583Z,4.17
2018-09-28T19:51:56.136Z,9.23
2018-09-28T19:56:59.848Z,13.77
2018-09-28T20:02:07.390Z,9.83
2018-09-28T20:07:10.950Z,10.00
2018-09-28T20:12:14.497Z,5.07
2018-09-28T20:17:18.233Z,5.43
2018-09-28T20:22:21.858Z,5.83
2018-09-28T20:27:25.429Z,13.90
2018-09-28T20:32:28.984Z,8.53
2018-09-28T20:37:32.992Z,7.00
2018-09-28T20:42:36.932Z,9.50
2018-09-28T20:47:40.541Z,5.97
2018-09-28T20:52:53.353Z,5.53
2018-09-28T20:57:57.172Z,8.17
2018-09-28T21:03:00.779Z,10.23
2018-09-28T21:08:04.321Z,7.97
2018-09-28T21:13:07.998Z,6.43
2018-09-28T21:18:11.749Z,6.23
2018-09-28T21:23:15.354Z,7.03
2018-09-28T21:28:19.160Z,6.23
2018-09-28T21:33:22.802Z,12.20
2018-09-28T21:38:26.970Z,6.80
2018-09-28T21:43:30.571Z,8.30
2018-09-28T21:48:34.103Z,8.43
2018-09-28T21:53:37.840Z,10.63
2018-09-28T21:58:41.500Z,6.00
2018-09-28T22:03:45.355Z,8.73
2018-09-28T22:08:48.914Z,6.27
2018-09-28T22:13:52.486Z,6.60
2018-09-28T22:18:56.125Z,9.57
2018-09-28T22:23:59.686Z,11.53
2018-09-28T22:29:03.268Z,8.90
2018-09-28T22:34:06.783Z,10.10
2018-09-28T22:39:11.675Z,5.70
2018-09-28T22:44:15.201Z,9.70
2018-09-28T22:49:18.910Z,10.97
2018-09-28T22:54:22.473Z,8.27
2018-09-28T22:59:26.063Z,6.90
2018-09-28T23:04:29.724Z,6.00
2018-09-28T23:09:33.339Z,6.23
2018-09-28T23:14:36.881Z,8.90
2018-09-28T23:19:40.410Z,9.47
2018-09-28T23:24:44.152Z,8.73
2018-09-28T23:29:47.810Z,9.93
2018-09-28T23:34:51.304Z,7.80
2018-09-28T23:39:55.027Z,5.20
2018-09-28T23:44:58.765Z,13.33
2018-09-28T23:50:02.424Z,6.73
2018-09-28T23:55:05.969Z,7.37
